Pateros, Washington
Current Conditions -  °F | °C
As of 12:30 AM on Thursday 18 Dec 2014 (Local Time) from KOMK Reporting Station
Moderate Fog Moderate Fog  
Wind Chill:   Ceiling: 500
Heat Index:   Visibility: 0.5mi
Dew Point:   Wind: 0mph
Humidity: 96%   Direction: NA
Pressure: 29.98"   Gusts: NA
Location:  48.05°N, 119.9°W
Report Text: KOMK 180830Z AUTO 00000KT 1/2SM FG BKN005 OVC026 01/00 A2998 RMK AO2 RAE0757 P0000 T00060000
Loading
Personal Weather Stations






























Interactive Weather Map New forecast layout! Learn more

10-Day Weather Forecast

Advertisements
Track Severe Weather on mobile